sensor_id;sensor_type;location;lat;lon;timestamp;P1;durP1;ratioP1;P2;durP2;ratioP2
3916;SDS011;1973;50.518;7.318;2023-08-31T00:00:49;6.23;;;3.63;;
3916;SDS011;1973;50.518;7.318;2023-08-31T00:03:17;7.73;;;3.70;;
3916;SDS011;1973;50.518;7.318;2023-08-31T00:05:45;10.67;;;3.57;;
3916;SDS011;1973;50.518;7.318;2023-08-31T00:08:13;3.90;;;3.40;;
3916;SDS011;1973;50.518;7.318;2023-08-31T00:10:39;4.37;;;3.67;;
3916;SDS011;1973;50.518;7.318;2023-08-31T00:13:06;4.67;;;3.47;;
3916;SDS011;1973;50.518;7.318;2023-08-31T00:15:34;3.93;;;3.53;;
3916;SDS011;1973;50.518;7.318;2023-08-31T00:18:02;6.97;;;3.53;;
3916;SDS011;1973;50.518;7.318;2023-08-31T00:20:32;4.03;;;3.10;;
3916;SDS011;1973;50.518;7.318;2023-08-31T00:23:00;5.13;;;3.27;;
3916;SDS011;1973;50.518;7.318;2023-08-31T00:25:27;4.10;;;3.70;;
3916;SDS011;1973;50.518;7.318;2023-08-31T00:27:54;3.70;;;3.30;;
3916;SDS011;1973;50.518;7.318;2023-08-31T00:30:22;4.47;;;2.90;;
3916;SDS011;1973;50.518;7.318;2023-08-31T00:32:56;6.10;;;3.47;;
3916;SDS011;1973;50.518;7.318;2023-08-31T00:35:26;10.90;;;3.93;;
3916;SDS011;1973;50.518;7.318;2023-08-31T00:37:53;4.30;;;3.20;;
3916;SDS011;1973;50.518;7.318;2023-08-31T00:40:24;6.63;;;3.77;;
3916;SDS011;1973;50.518;7.318;2023-08-31T00:42:51;6.50;;;3.17;;
3916;SDS011;1973;50.518;7.318;2023-08-31T00:45:18;3.83;;;3.40;;
3916;SDS011;1973;50.518;7.318;2023-08-31T00:47:46;5.10;;;3.77;;
3916;SDS011;1973;50.518;7.318;2023-08-31T00:50:16;4.20;;;2.77;;
3916;SDS011;1973;50.518;7.318;2023-08-31T00:52:42;3.40;;;3.03;;
3916;SDS011;1973;50.518;7.318;2023-08-31T00:55:10;5.73;;;2.90;;
3916;SDS011;1973;50.518;7.318;2023-08-31T00:57:37;3.90;;;2.90;;
3916;SDS011;1973;50.518;7.318;2023-08-31T01:00:04;4.20;;;2.90;;
3916;SDS011;1973;50.518;7.318;2023-08-31T01:02:37;4.97;;;2.90;;
3916;SDS011;1973;50.518;7.318;2023-08-31T01:11:03;4.80;;;3.27;;
3916;SDS011;1973;50.518;7.318;2023-08-31T01:13:31;3.90;;;3.40;;
3916;SDS011;1973;50.518;7.318;2023-08-31T01:16:00;3.90;;;2.87;;
3916;SDS011;1973;50.518;7.318;2023-08-31T01:18:29;3.20;;;2.90;;
3916;SDS011;1973;50.518;7.318;2023-08-31T01:21:10;3.80;;;2.50;;
3916;SDS011;1973;50.518;7.318;2023-08-31T01:26:20;6.30;;;2.83;;
3916;SDS011;1973;50.518;7.318;2023-08-31T01:28:48;3.33;;;2.90;;
3916;SDS011;1973;50.518;7.318;2023-08-31T01:31:15;5.23;;;3.30;;
3916;SDS011;1973;50.518;7.318;2023-08-31T01:33:42;3.27;;;2.60;;
3916;SDS011;1973;50.518;7.318;2023-08-31T01:42:12;3.40;;;2.90;;
3916;SDS011;1973;50.518;7.318;2023-08-31T01:44:41;3.33;;;2.80;;
3916;SDS011;1973;50.518;7.318;2023-08-31T01:47:09;8.67;;;3.33;;
3916;SDS011;1973;50.518;7.318;2023-08-31T01:49:39;6.20;;;3.53;;
3916;SDS011;1973;50.518;7.318;2023-08-31T01:52:06;7.13;;;3.17;;
3916;SDS011;1973;50.518;7.318;2023-08-31T01:54:33;4.30;;;3.00;;
3916;SDS011;1973;50.518;7.318;2023-08-31T01:57:00;4.40;;;3.10;;
3916;SDS011;1973;50.518;7.318;2023-08-31T01:59:27;6.53;;;3.17;;
3916;SDS011;1973;50.518;7.318;2023-08-31T02:01:53;3.70;;;2.70;;
3916;SDS011;1973;50.518;7.318;2023-08-31T02:04:20;8.40;;;3.00;;
3916;SDS011;1973;50.518;7.318;2023-08-31T02:06:46;4.83;;;2.17;;
3916;SDS011;1973;50.518;7.318;2023-08-31T02:09:13;3.10;;;2.70;;
3916;SDS011;1973;50.518;7.318;2023-08-31T02:11:40;6.03;;;2.93;;
3916;SDS011;1973;50.518;7.318;2023-08-31T02:14:07;4.03;;;2.80;;
3916;SDS011;1973;50.518;7.318;2023-08-31T02:16:34;4.03;;;2.60;;
3916;SDS011;1973;50.518;7.318;2023-08-31T02:19:00;5.33;;;2.80;;
3916;SDS011;1973;50.518;7.318;2023-08-31T02:21:27;4.10;;;3.30;;
3916;SDS011;1973;50.518;7.318;2023-08-31T02:23:54;5.40;;;3.00;;
3916;SDS011;1973;50.518;7.318;2023-08-31T02:26:21;4.33;;;2.97;;
3916;SDS011;1973;50.518;7.318;2023-08-31T02:28:48;3.60;;;2.50;;
3916;SDS011;1973;50.518;7.318;2023-08-31T02:31:16;3.97;;;2.70;;
3916;SDS011;1973;50.518;7.318;2023-08-31T02:33:45;5.20;;;3.10;;
3916;SDS011;1973;50.518;7.318;2023-08-31T02:36:15;6.93;;;3.43;;
3916;SDS011;1973;50.518;7.318;2023-08-31T02:38:41;5.20;;;3.50;;
3916;SDS011;1973;50.518;7.318;2023-08-31T02:41:08;8.50;;;3.40;;
3916;SDS011;1973;50.518;7.318;2023-08-31T02:43:34;5.40;;;2.83;;
3916;SDS011;1973;50.518;7.318;2023-08-31T02:46:01;3.20;;;2.73;;
3916;SDS011;1973;50.518;7.318;2023-08-31T02:48:29;4.47;;;2.70;;
3916;SDS011;1973;50.518;7.318;2023-08-31T02:50:57;6.83;;;2.80;;
3916;SDS011;1973;50.518;7.318;2023-08-31T02:53:24;3.73;;;2.90;;
3916;SDS011;1973;50.518;7.318;2023-08-31T02:55:51;5.80;;;2.63;;
3916;SDS011;1973;50.518;7.318;2023-08-31T02:58:17;3.83;;;2.80;;
3916;SDS011;1973;50.518;7.318;2023-08-31T03:00:45;6.33;;;3.23;;
3916;SDS011;1973;50.518;7.318;2023-08-31T03:03:15;5.30;;;3.23;;
3916;SDS011;1973;50.518;7.318;2023-08-31T03:05:42;7.80;;;3.10;;
3916;SDS011;1973;50.518;7.318;2023-08-31T03:08:09;4.77;;;3.23;;
3916;SDS011;1973;50.518;7.318;2023-08-31T03:10:37;6.23;;;3.03;;
3916;SDS011;1973;50.518;7.318;2023-08-31T03:13:04;5.00;;;3.07;;
3916;SDS011;1973;50.518;7.318;2023-08-31T03:15:34;4.47;;;3.07;;
3916;SDS011;1973;50.518;7.318;2023-08-31T03:18:00;6.00;;;3.77;;
3916;SDS011;1973;50.518;7.318;2023-08-31T03:20:27;5.57;;;3.47;;
3916;SDS011;1973;50.518;7.318;2023-08-31T03:22:54;4.00;;;3.20;;
3916;SDS011;1973;50.518;7.318;2023-08-31T03:25:21;5.77;;;3.30;;
3916;SDS011;1973;50.518;7.318;2023-08-31T03:27:47;5.20;;;3.00;;
3916;SDS011;1973;50.518;7.318;2023-08-31T03:30:14;5.13;;;2.97;;
3916;SDS011;1973;50.518;7.318;2023-08-31T03:32:40;4.60;;;3.10;;
3916;SDS011;1973;50.518;7.318;2023-08-31T03:35:08;4.17;;;3.30;;
3916;SDS011;1973;50.518;7.318;2023-08-31T03:37:35;6.30;;;2.90;;
3916;SDS011;1973;50.518;7.318;2023-08-31T03:40:02;5.60;;;3.30;;
3916;SDS011;1973;50.518;7.318;2023-08-31T03:42:30;6.47;;;3.83;;
3916;SDS011;1973;50.518;7.318;2023-08-31T03:44:57;6.03;;;3.60;;
3916;SDS011;1973;50.518;7.318;2023-08-31T03:47:24;5.33;;;3.80;;
3916;SDS011;1973;50.518;7.318;2023-08-31T03:49:50;4.63;;;3.50;;
3916;SDS011;1973;50.518;7.318;2023-08-31T03:52:17;5.53;;;3.50;;
3916;SDS011;1973;50.518;7.318;2023-08-31T03:54:43;6.10;;;3.00;;
3916;SDS011;1973;50.518;7.318;2023-08-31T03:57:10;4.33;;;3.50;;
3916;SDS011;1973;50.518;7.318;2023-08-31T03:59:36;4.03;;;3.40;;
3916;SDS011;1973;50.518;7.318;2023-08-31T04:02:03;4.20;;;3.10;;
3916;SDS011;1973;50.518;7.318;2023-08-31T04:04:30;7.27;;;3.77;;
3916;SDS011;1973;50.518;7.318;2023-08-31T04:06:56;4.37;;;3.20;;
3916;SDS011;1973;50.518;7.318;2023-08-31T04:09:23;6.27;;;3.87;;
3916;SDS011;1973;50.518;7.318;2023-08-31T04:11:50;6.07;;;3.30;;
3916;SDS011;1973;50.518;7.318;2023-08-31T04:14:16;3.80;;;3.50;;
3916;SDS011;1973;50.518;7.318;2023-08-31T04:16:44;3.60;;;3.30;;
3916;SDS011;1973;50.518;7.318;2023-08-31T04:19:13;4.97;;;3.37;;
3916;SDS011;1973;50.518;7.318;2023-08-31T04:21:40;3.67;;;3.33;;
3916;SDS011;1973;50.518;7.318;2023-08-31T04:24:06;3.83;;;3.40;;
3916;SDS011;1973;50.518;7.318;2023-08-31T04:26:33;9.43;;;3.80;;
3916;SDS011;1973;50.518;7.318;2023-08-31T04:28:59;7.13;;;3.80;;
3916;SDS011;1973;50.518;7.318;2023-08-31T04:31:26;7.77;;;3.90;;
3916;SDS011;1973;50.518;7.318;2023-08-31T04:33:53;3.30;;;3.00;;
3916;SDS011;1973;50.518;7.318;2023-08-31T04:36:20;5.07;;;3.30;;
3916;SDS011;1973;50.518;7.318;2023-08-31T04:38:48;6.33;;;3.27;;
3916;SDS011;1973;50.518;7.318;2023-08-31T04:41:15;6.20;;;2.90;;
3916;SDS011;1973;50.518;7.318;2023-08-31T04:43:41;3.53;;;3.10;;
3916;SDS011;1973;50.518;7.318;2023-08-31T04:46:08;6.03;;;3.67;;
3916;SDS011;1973;50.518;7.318;2023-08-31T04:48:36;6.33;;;3.30;;
3916;SDS011;1973;50.518;7.318;2023-08-31T04:51:02;6.60;;;3.80;;
3916;SDS011;1973;50.518;7.318;2023-08-31T04:53:32;5.33;;;3.40;;
3916;SDS011;1973;50.518;7.318;2023-08-31T04:55:58;4.10;;;3.27;;
3916;SDS011;1973;50.518;7.318;2023-08-31T04:58:25;4.60;;;3.20;;
3916;SDS011;1973;50.518;7.318;2023-08-31T05:00:51;3.97;;;3.50;;
3916;SDS011;1973;50.518;7.318;2023-08-31T05:03:18;4.10;;;3.40;;
3916;SDS011;1973;50.518;7.318;2023-08-31T05:05:44;4.10;;;3.70;;
3916;SDS011;1973;50.518;7.318;2023-08-31T05:08:11;7.10;;;3.47;;
3916;SDS011;1973;50.518;7.318;2023-08-31T05:10:38;4.63;;;2.93;;
3916;SDS011;1973;50.518;7.318;2023-08-31T05:13:05;4.10;;;3.13;;
3916;SDS011;1973;50.518;7.318;2023-08-31T05:15:32;3.90;;;3.17;;
3916;SDS011;1973;50.518;7.318;2023-08-31T05:17:59;6.20;;;3.30;;
3916;SDS011;1973;50.518;7.318;2023-08-31T05:20:26;5.80;;;3.43;;
3916;SDS011;1973;50.518;7.318;2023-08-31T05:22:53;3.50;;;2.93;;
3916;SDS011;1973;50.518;7.318;2023-08-31T05:25:20;5.30;;;3.43;;
3916;SDS011;1973;50.518;7.318;2023-08-31T05:27:46;3.90;;;3.50;;
3916;SDS011;1973;50.518;7.318;2023-08-31T05:30:13;4.83;;;3.10;;
3916;SDS011;1973;50.518;7.318;2023-08-31T05:32:39;4.97;;;3.23;;
3916;SDS011;1973;50.518;7.318;2023-08-31T05:35:06;3.50;;;3.20;;
3916;SDS011;1973;50.518;7.318;2023-08-31T05:37:33;6.23;;;3.03;;
3916;SDS011;1973;50.518;7.318;2023-08-31T05:40:04;5.60;;;3.17;;
3916;SDS011;1973;50.518;7.318;2023-08-31T05:42:32;6.43;;;3.03;;
3916;SDS011;1973;50.518;7.318;2023-08-31T05:44:59;4.53;;;3.73;;
3916;SDS011;1973;50.518;7.318;2023-08-31T05:47:26;3.63;;;2.90;;
3916;SDS011;1973;50.518;7.318;2023-08-31T05:49:52;3.93;;;2.97;;
3916;SDS011;1973;50.518;7.318;2023-08-31T05:52:19;3.60;;;2.80;;
3916;SDS011;1973;50.518;7.318;2023-08-31T05:54:45;3.83;;;2.80;;
3916;SDS011;1973;50.518;7.318;2023-08-31T05:57:12;3.73;;;2.90;;
3916;SDS011;1973;50.518;7.318;2023-08-31T05:59:38;3.30;;;3.00;;
3916;SDS011;1973;50.518;7.318;2023-08-31T06:02:05;4.23;;;2.77;;
3916;SDS011;1973;50.518;7.318;2023-08-31T06:04:32;3.40;;;3.10;;
3916;SDS011;1973;50.518;7.318;2023-08-31T06:06:58;3.63;;;2.67;;
3916;SDS011;1973;50.518;7.318;2023-08-31T06:09:25;4.20;;;3.00;;
3916;SDS011;1973;50.518;7.318;2023-08-31T06:11:51;3.50;;;3.03;;
3916;SDS011;1973;50.518;7.318;2023-08-31T06:14:18;3.33;;;2.40;;
3916;SDS011;1973;50.518;7.318;2023-08-31T06:16:45;4.43;;;2.70;;
3916;SDS011;1973;50.518;7.318;2023-08-31T06:19:12;4.10;;;3.10;;
3916;SDS011;1973;50.518;7.318;2023-08-31T06:21:41;3.37;;;2.80;;
3916;SDS011;1973;50.518;7.318;2023-08-31T06:24:08;6.10;;;2.97;;
3916;SDS011;1973;50.518;7.318;2023-08-31T06:26:39;3.87;;;2.50;;
3916;SDS011;1973;50.518;7.318;2023-08-31T06:29:05;4.10;;;3.00;;
3916;SDS011;1973;50.518;7.318;2023-08-31T06:31:34;6.07;;;2.93;;
3916;SDS011;1973;50.518;7.318;2023-08-31T06:34:00;5.47;;;2.90;;
3916;SDS011;1973;50.518;7.318;2023-08-31T06:36:27;3.33;;;2.53;;
3916;SDS011;1973;50.518;7.318;2023-08-31T06:38:53;6.90;;;2.73;;
3916;SDS011;1973;50.518;7.318;2023-08-31T06:41:20;4.07;;;2.60;;
3916;SDS011;1973;50.518;7.318;2023-08-31T06:43:46;3.67;;;2.83;;
3916;SDS011;1973;50.518;7.318;2023-08-31T06:46:13;3.77;;;2.63;;
3916;SDS011;1973;50.518;7.318;2023-08-31T06:48:50;3.13;;;2.83;;
3916;SDS011;1973;50.518;7.318;2023-08-31T06:51:17;3.60;;;2.10;;
3916;SDS011;1973;50.518;7.318;2023-08-31T06:53:44;7.17;;;2.97;;
3916;SDS011;1973;50.518;7.318;2023-08-31T06:56:10;3.63;;;2.30;;
3916;SDS011;1973;50.518;7.318;2023-08-31T06:58:37;4.27;;;2.70;;
3916;SDS011;1973;50.518;7.318;2023-08-31T07:01:07;3.90;;;2.20;;
3916;SDS011;1973;50.518;7.318;2023-08-31T07:03:33;3.63;;;2.13;;
3916;SDS011;1973;50.518;7.318;2023-08-31T07:06:00;2.53;;;2.33;;
3916;SDS011;1973;50.518;7.318;2023-08-31T07:08:27;3.43;;;2.13;;
3916;SDS011;1973;50.518;7.318;2023-08-31T07:10:53;5.17;;;2.23;;
3916;SDS011;1973;50.518;7.318;2023-08-31T07:13:20;7.20;;;2.90;;
3916;SDS011;1973;50.518;7.318;2023-08-31T07:15:46;4.03;;;2.43;;
3916;SDS011;1973;50.518;7.318;2023-08-31T07:18:15;6.70;;;2.20;;
3916;SDS011;1973;50.518;7.318;2023-08-31T07:20:41;3.77;;;2.30;;
3916;SDS011;1973;50.518;7.318;2023-08-31T07:23:08;4.57;;;2.80;;
3916;SDS011;1973;50.518;7.318;2023-08-31T07:25:35;4.77;;;2.67;;
3916;SDS011;1973;50.518;7.318;2023-08-31T07:28:02;4.27;;;2.80;;
3916;SDS011;1973;50.518;7.318;2023-08-31T07:30:29;2.90;;;2.30;;
3916;SDS011;1973;50.518;7.318;2023-08-31T07:32:56;4.67;;;2.30;;
3916;SDS011;1973;50.518;7.318;2023-08-31T07:35:23;8.70;;;3.20;;
3916;SDS011;1973;50.518;7.318;2023-08-31T07:37:49;3.87;;;2.60;;
3916;SDS011;1973;50.518;7.318;2023-08-31T07:40:16;3.97;;;2.27;;
3916;SDS011;1973;50.518;7.318;2023-08-31T07:42:43;4.37;;;2.83;;
3916;SDS011;1973;50.518;7.318;2023-08-31T07:45:09;3.00;;;2.70;;
3916;SDS011;1973;50.518;7.318;2023-08-31T07:47:36;4.33;;;2.30;;
3916;SDS011;1973;50.518;7.318;2023-08-31T07:50:03;5.17;;;2.90;;
3916;SDS011;1973;50.518;7.318;2023-08-31T07:52:30;5.20;;;3.20;;
3916;SDS011;1973;50.518;7.318;2023-08-31T07:54:56;5.17;;;2.73;;
3916;SDS011;1973;50.518;7.318;2023-08-31T07:57:23;6.23;;;3.07;;
3916;SDS011;1973;50.518;7.318;2023-08-31T07:59:50;6.20;;;5.60;;
3916;SDS011;1973;50.518;7.318;2023-08-31T08:02:17;8.53;;;5.97;;
3916;SDS011;1973;50.518;7.318;2023-08-31T08:04:45;4.23;;;3.70;;
3916;SDS011;1973;50.518;7.318;2023-08-31T08:07:12;4.57;;;2.77;;
3916;SDS011;1973;50.518;7.318;2023-08-31T08:09:38;4.63;;;2.70;;
3916;SDS011;1973;50.518;7.318;2023-08-31T08:12:05;7.13;;;3.23;;
3916;SDS011;1973;50.518;7.318;2023-08-31T08:14:32;3.47;;;2.40;;
3916;SDS011;1973;50.518;7.318;2023-08-31T08:16:59;5.43;;;2.30;;
3916;SDS011;1973;50.518;7.318;2023-08-31T08:19:26;4.10;;;2.27;;
3916;SDS011;1973;50.518;7.318;2023-08-31T08:21:53;6.43;;;2.30;;
3916;SDS011;1973;50.518;7.318;2023-08-31T08:24:19;3.93;;;2.13;;
3916;SDS011;1973;50.518;7.318;2023-08-31T08:26:46;3.97;;;1.80;;
3916;SDS011;1973;50.518;7.318;2023-08-31T08:29:13;3.83;;;1.80;;
3916;SDS011;1973;50.518;7.318;2023-08-31T08:31:39;3.30;;;2.50;;
3916;SDS011;1973;50.518;7.318;2023-08-31T08:34:08;6.53;;;2.00;;
3916;SDS011;1973;50.518;7.318;2023-08-31T08:36:34;5.53;;;2.30;;
3916;SDS011;1973;50.518;7.318;2023-08-31T08:39:01;3.43;;;1.57;;
3916;SDS011;1973;50.518;7.318;2023-08-31T08:41:28;3.80;;;1.80;;
3916;SDS011;1973;50.518;7.318;2023-08-31T08:43:56;4.60;;;1.87;;
3916;SDS011;1973;50.518;7.318;2023-08-31T08:46:27;3.70;;;1.60;;
3916;SDS011;1973;50.518;7.318;2023-08-31T08:48:54;3.70;;;1.70;;
3916;SDS011;1973;50.518;7.318;2023-08-31T08:51:22;4.37;;;2.07;;
3916;SDS011;1973;50.518;7.318;2023-08-31T08:53:49;3.70;;;1.70;;
3916;SDS011;1973;50.518;7.318;2023-08-31T08:56:17;2.20;;;1.40;;
3916;SDS011;1973;50.518;7.318;2023-08-31T08:58:43;2.53;;;1.40;;
3916;SDS011;1973;50.518;7.318;2023-08-31T09:01:10;3.10;;;1.80;;
3916;SDS011;1973;50.518;7.318;2023-08-31T09:03:37;3.17;;;1.93;;
3916;SDS011;1973;50.518;7.318;2023-08-31T09:06:04;1.60;;;1.27;;
3916;SDS011;1973;50.518;7.318;2023-08-31T09:08:34;5.37;;;1.73;;
3916;SDS011;1973;50.518;7.318;2023-08-31T09:11:03;3.93;;;1.80;;
3916;SDS011;1973;50.518;7.318;2023-08-31T09:13:29;3.77;;;1.97;;
3916;SDS011;1973;50.518;7.318;2023-08-31T09:15:56;3.47;;;1.63;;
3916;SDS011;1973;50.518;7.318;2023-08-31T09:18:28;4.33;;;1.60;;
3916;SDS011;1973;50.518;7.318;2023-08-31T09:20:56;3.53;;;1.60;;
3916;SDS011;1973;50.518;7.318;2023-08-31T09:23:23;2.27;;;1.47;;
3916;SDS011;1973;50.518;7.318;2023-08-31T09:25:59;4.50;;;1.50;;
3916;SDS011;1973;50.518;7.318;2023-08-31T09:28:28;6.83;;;2.60;;
3916;SDS011;1973;50.518;7.318;2023-08-31T09:31:05;3.80;;;2.27;;
3916;SDS011;1973;50.518;7.318;2023-08-31T09:33:36;3.47;;;1.60;;
3916;SDS011;1973;50.518;7.318;2023-08-31T09:36:05;5.97;;;1.97;;
3916;SDS011;1973;50.518;7.318;2023-08-31T09:38:40;4.93;;;1.93;;
3916;SDS011;1973;50.518;7.318;2023-08-31T09:41:09;3.67;;;1.93;;
3916;SDS011;1973;50.518;7.318;2023-08-31T09:43:36;3.47;;;1.30;;
3916;SDS011;1973;50.518;7.318;2023-08-31T09:46:03;3.77;;;1.60;;
3916;SDS011;1973;50.518;7.318;2023-08-31T09:48:30;2.90;;;1.57;;
3916;SDS011;1973;50.518;7.318;2023-08-31T09:50:58;2.60;;;1.30;;
3916;SDS011;1973;50.518;7.318;2023-08-31T09:53:24;3.37;;;1.70;;
3916;SDS011;1973;50.518;7.318;2023-08-31T09:55:54;3.10;;;1.63;;
3916;SDS011;1973;50.518;7.318;2023-08-31T09:58:23;2.50;;;1.40;;
3916;SDS011;1973;50.518;7.318;2023-08-31T10:00:50;2.83;;;1.70;;
3916;SDS011;1973;50.518;7.318;2023-08-31T10:03:19;3.47;;;2.17;;
3916;SDS011;1973;50.518;7.318;2023-08-31T10:05:48;5.53;;;2.03;;
3916;SDS011;1973;50.518;7.318;2023-08-31T10:08:16;2.27;;;1.40;;
3916;SDS011;1973;50.518;7.318;2023-08-31T10:10:44;3.10;;;1.83;;
3916;SDS011;1973;50.518;7.318;2023-08-31T10:13:11;4.77;;;2.43;;
3916;SDS011;1973;50.518;7.318;2023-08-31T10:15:38;3.27;;;2.00;;
3916;SDS011;1973;50.518;7.318;2023-08-31T10:18:06;3.87;;;2.00;;
3916;SDS011;1973;50.518;7.318;2023-08-31T10:20:34;3.23;;;2.00;;
3916;SDS011;1973;50.518;7.318;2023-08-31T10:23:04;5.50;;;2.83;;
3916;SDS011;1973;50.518;7.318;2023-08-31T10:28:21;4.43;;;2.03;;
3916;SDS011;1973;50.518;7.318;2023-08-31T10:31:27;3.80;;;2.20;;
3916;SDS011;1973;50.518;7.318;2023-08-31T10:36:40;3.20;;;1.60;;
3916;SDS011;1973;50.518;7.318;2023-08-31T10:39:19;4.83;;;1.83;;
3916;SDS011;1973;50.518;7.318;2023-08-31T10:41:52;1.90;;;1.50;;
3916;SDS011;1973;50.518;7.318;2023-08-31T10:46:59;3.20;;;1.60;;
3916;SDS011;1973;50.518;7.318;2023-08-31T10:49:29;3.13;;;1.90;;
3916;SDS011;1973;50.518;7.318;2023-08-31T10:52:00;4.53;;;1.47;;
3916;SDS011;1973;50.518;7.318;2023-08-31T10:55:04;2.93;;;1.70;;
3916;SDS011;1973;50.518;7.318;2023-08-31T10:57:31;2.93;;;1.97;;
3916;SDS011;1973;50.518;7.318;2023-08-31T11:00:01;3.20;;;2.00;;
3916;SDS011;1973;50.518;7.318;2023-08-31T11:02:38;2.80;;;1.80;;
3916;SDS011;1973;50.518;7.318;2023-08-31T11:07:41;3.70;;;1.90;;
3916;SDS011;1973;50.518;7.318;2023-08-31T11:12:55;3.23;;;1.37;;
3916;SDS011;1973;50.518;7.318;2023-08-31T11:15:25;3.83;;;2.30;;
3916;SDS011;1973;50.518;7.318;2023-08-31T11:17:54;4.67;;;2.33;;
3916;SDS011;1973;50.518;7.318;2023-08-31T11:20:22;3.50;;;1.87;;
3916;SDS011;1973;50.518;7.318;2023-08-31T11:22:54;2.70;;;1.67;;
3916;SDS011;1973;50.518;7.318;2023-08-31T11:25:21;4.20;;;1.67;;
3916;SDS011;1973;50.518;7.318;2023-08-31T11:27:54;3.80;;;2.07;;
3916;SDS011;1973;50.518;7.318;2023-08-31T11:30:22;3.30;;;1.83;;
3916;SDS011;1973;50.518;7.318;2023-08-31T11:32:51;3.40;;;1.90;;
3916;SDS011;1973;50.518;7.318;2023-08-31T11:35:19;2.53;;;1.40;;
3916;SDS011;1973;50.518;7.318;2023-08-31T11:37:52;5.07;;;2.20;;
3916;SDS011;1973;50.518;7.318;2023-08-31T11:40:22;3.10;;;1.83;;
3916;SDS011;1973;50.518;7.318;2023-08-31T11:42:48;3.57;;;1.90;;
3916;SDS011;1973;50.518;7.318;2023-08-31T11:45:18;3.53;;;1.70;;
3916;SDS011;1973;50.518;7.318;2023-08-31T11:47:46;2.80;;;1.57;;
3916;SDS011;1973;50.518;7.318;2023-08-31T11:50:14;2.70;;;2.00;;
3916;SDS011;1973;50.518;7.318;2023-08-31T11:52:42;4.00;;;1.90;;
3916;SDS011;1973;50.518;7.318;2023-08-31T11:55:12;2.30;;;1.60;;
3916;SDS011;1973;50.518;7.318;2023-08-31T11:57:47;3.33;;;1.63;;
3916;SDS011;1973;50.518;7.318;2023-08-31T12:00:17;2.67;;;1.90;;
3916;SDS011;1973;50.518;7.318;2023-08-31T12:02:45;3.07;;;1.87;;
3916;SDS011;1973;50.518;7.318;2023-08-31T12:05:15;3.10;;;1.93;;
3916;SDS011;1973;50.518;7.318;2023-08-31T12:07:41;7.53;;;2.13;;
3916;SDS011;1973;50.518;7.318;2023-08-31T12:10:08;3.33;;;1.77;;
3916;SDS011;1973;50.518;7.318;2023-08-31T12:12:36;3.97;;;2.03;;
3916;SDS011;1973;50.518;7.318;2023-08-31T12:15:03;4.30;;;1.80;;
3916;SDS011;1973;50.518;7.318;2023-08-31T12:17:32;3.70;;;1.83;;
3916;SDS011;1973;50.518;7.318;2023-08-31T12:20:03;2.40;;;1.83;;
3916;SDS011;1973;50.518;7.318;2023-08-31T12:22:31;2.63;;;1.80;;
3916;SDS011;1973;50.518;7.318;2023-08-31T12:24:58;3.87;;;2.00;;
3916;SDS011;1973;50.518;7.318;2023-08-31T12:27:24;2.50;;;1.63;;
3916;SDS011;1973;50.518;7.318;2023-08-31T12:29:52;2.93;;;1.73;;
3916;SDS011;1973;50.518;7.318;2023-08-31T12:32:18;2.70;;;1.77;;
3916;SDS011;1973;50.518;7.318;2023-08-31T12:34:45;3.57;;;1.97;;
3916;SDS011;1973;50.518;7.318;2023-08-31T12:37:11;7.83;;;2.60;;
3916;SDS011;1973;50.518;7.318;2023-08-31T12:39:39;4.23;;;2.00;;
3916;SDS011;1973;50.518;7.318;2023-08-31T12:42:08;3.10;;;2.00;;
3916;SDS011;1973;50.518;7.318;2023-08-31T12:44:49;3.27;;;2.10;;
3916;SDS011;1973;50.518;7.318;2023-08-31T12:47:15;2.63;;;1.70;;
3916;SDS011;1973;50.518;7.318;2023-08-31T12:49:42;3.97;;;1.67;;
3916;SDS011;1973;50.518;7.318;2023-08-31T12:52:08;2.87;;;1.90;;
3916;SDS011;1973;50.518;7.318;2023-08-31T12:54:35;4.23;;;1.80;;
3916;SDS011;1973;50.518;7.318;2023-08-31T12:57:01;3.67;;;1.93;;
3916;SDS011;1973;50.518;7.318;2023-08-31T12:59:28;5.87;;;2.10;;
3916;SDS011;1973;50.518;7.318;2023-08-31T13:01:55;3.27;;;1.97;;
3916;SDS011;1973;50.518;7.318;2023-08-31T13:04:22;4.10;;;2.03;;
3916;SDS011;1973;50.518;7.318;2023-08-31T13:06:48;3.73;;;2.03;;
3916;SDS011;1973;50.518;7.318;2023-08-31T13:09:15;4.10;;;1.97;;
3916;SDS011;1973;50.518;7.318;2023-08-31T13:11:42;3.73;;;1.60;;
3916;SDS011;1973;50.518;7.318;2023-08-31T13:14:08;4.03;;;1.53;;
3916;SDS011;1973;50.518;7.318;2023-08-31T13:16:35;3.13;;;1.60;;
3916;SDS011;1973;50.518;7.318;2023-08-31T13:19:03;2.53;;;2.03;;
3916;SDS011;1973;50.518;7.318;2023-08-31T13:21:30;3.77;;;1.97;;
3916;SDS011;1973;50.518;7.318;2023-08-31T13:23:56;4.07;;;2.20;;
3916;SDS011;1973;50.518;7.318;2023-08-31T13:26:23;3.10;;;1.83;;
3916;SDS011;1973;50.518;7.318;2023-08-31T13:28:49;2.90;;;2.10;;
3916;SDS011;1973;50.518;7.318;2023-08-31T13:31:16;3.23;;;1.93;;
3916;SDS011;1973;50.518;7.318;2023-08-31T13:33:42;4.53;;;1.80;;
3916;SDS011;1973;50.518;7.318;2023-08-31T13:36:09;4.23;;;2.37;;
3916;SDS011;1973;50.518;7.318;2023-08-31T13:38:36;3.17;;;1.80;;
3916;SDS011;1973;50.518;7.318;2023-08-31T13:41:02;4.63;;;1.83;;
3916;SDS011;1973;50.518;7.318;2023-08-31T13:43:29;3.70;;;2.10;;
3916;SDS011;1973;50.518;7.318;2023-08-31T13:45:56;3.00;;;2.00;;
3916;SDS011;1973;50.518;7.318;2023-08-31T13:48:24;3.73;;;2.00;;
3916;SDS011;1973;50.518;7.318;2023-08-31T13:50:50;2.60;;;1.77;;
3916;SDS011;1973;50.518;7.318;2023-08-31T13:53:17;2.63;;;1.60;;
3916;SDS011;1973;50.518;7.318;2023-08-31T13:55:44;5.50;;;2.10;;
3916;SDS011;1973;50.518;7.318;2023-08-31T13:58:11;3.10;;;1.90;;
3916;SDS011;1973;50.518;7.318;2023-08-31T14:00:39;3.30;;;1.60;;
3916;SDS011;1973;50.518;7.318;2023-08-31T14:03:06;3.03;;;1.70;;
3916;SDS011;1973;50.518;7.318;2023-08-31T14:05:33;3.77;;;1.80;;
3916;SDS011;1973;50.518;7.318;2023-08-31T14:08:00;2.73;;;1.87;;
3916;SDS011;1973;50.518;7.318;2023-08-31T14:10:30;5.30;;;2.50;;
3916;SDS011;1973;50.518;7.318;2023-08-31T14:12:57;3.80;;;1.60;;
3916;SDS011;1973;50.518;7.318;2023-08-31T14:15:24;2.93;;;1.63;;
3916;SDS011;1973;50.518;7.318;2023-08-31T14:17:51;4.80;;;1.80;;
3916;SDS011;1973;50.518;7.318;2023-08-31T14:20:19;2.40;;;1.50;;
3916;SDS011;1973;50.518;7.318;2023-08-31T14:22:46;2.40;;;1.80;;
3916;SDS011;1973;50.518;7.318;2023-08-31T14:25:12;3.63;;;1.73;;
3916;SDS011;1973;50.518;7.318;2023-08-31T14:27:39;5.17;;;2.10;;
3916;SDS011;1973;50.518;7.318;2023-08-31T14:30:06;2.60;;;1.33;;
3916;SDS011;1973;50.518;7.318;2023-08-31T14:32:33;4.33;;;1.93;;
3916;SDS011;1973;50.518;7.318;2023-08-31T14:35:00;5.43;;;2.00;;
3916;SDS011;1973;50.518;7.318;2023-08-31T14:37:27;3.83;;;1.77;;
3916;SDS011;1973;50.518;7.318;2023-08-31T14:39:53;4.00;;;1.87;;
3916;SDS011;1973;50.518;7.318;2023-08-31T14:42:20;4.03;;;1.90;;
3916;SDS011;1973;50.518;7.318;2023-08-31T14:44:47;3.23;;;1.90;;
3916;SDS011;1973;50.518;7.318;2023-08-31T14:47:15;7.10;;;1.90;;
3916;SDS011;1973;50.518;7.318;2023-08-31T14:49:43;5.30;;;2.23;;
3916;SDS011;1973;50.518;7.318;2023-08-31T14:52:09;4.70;;;1.73;;
3916;SDS011;1973;50.518;7.318;2023-08-31T14:54:36;3.17;;;1.90;;
3916;SDS011;1973;50.518;7.318;2023-08-31T14:57:02;4.53;;;1.87;;
3916;SDS011;1973;50.518;7.318;2023-08-31T14:59:32;3.83;;;2.37;;
3916;SDS011;1973;50.518;7.318;2023-08-31T15:01:59;3.97;;;1.73;;
3916;SDS011;1973;50.518;7.318;2023-08-31T15:04:28;4.80;;;1.80;;
3916;SDS011;1973;50.518;7.318;2023-08-31T15:06:54;4.73;;;2.10;;
3916;SDS011;1973;50.518;7.318;2023-08-31T15:09:22;4.30;;;2.20;;
3916;SDS011;1973;50.518;7.318;2023-08-31T15:11:49;4.10;;;2.10;;
3916;SDS011;1973;50.518;7.318;2023-08-31T15:14:16;4.87;;;2.40;;
3916;SDS011;1973;50.518;7.318;2023-08-31T15:16:43;4.03;;;2.10;;
3916;SDS011;1973;50.518;7.318;2023-08-31T15:19:09;3.33;;;1.50;;
3916;SDS011;1973;50.518;7.318;2023-08-31T15:21:36;3.73;;;2.30;;
3916;SDS011;1973;50.518;7.318;2023-08-31T15:24:04;3.90;;;1.57;;
3916;SDS011;1973;50.518;7.318;2023-08-31T15:26:31;3.77;;;1.90;;
3916;SDS011;1973;50.518;7.318;2023-08-31T15:28:58;4.90;;;2.23;;
3916;SDS011;1973;50.518;7.318;2023-08-31T15:31:25;7.53;;;2.30;;
3916;SDS011;1973;50.518;7.318;2023-08-31T15:33:51;3.33;;;1.80;;
3916;SDS011;1973;50.518;7.318;2023-08-31T15:36:18;3.27;;;1.70;;
3916;SDS011;1973;50.518;7.318;2023-08-31T15:38:45;2.73;;;2.03;;
3916;SDS011;1973;50.518;7.318;2023-08-31T15:41:12;2.50;;;1.60;;
3916;SDS011;1973;50.518;7.318;2023-08-31T15:43:40;3.73;;;1.77;;
3916;SDS011;1973;50.518;7.318;2023-08-31T15:46:08;3.10;;;1.80;;